Time;durP1;ratioP1;P1;durP2;ratioP2;P2;SDS_P1;SDS_P2;PMS_P1;PMS_P2;Temp;Humidity;BMP_temperature;BMP_pressure;BME280_temperature;BME280_humidity;BME280_pressure;Samples;Min_cycle;Max_cycle;Signal;HPM_P1;HPM_P2
2022/11/20 00:07:34;;;;;;;32.00;15.75;;;;;;;-6.23;70.92;99862.75;30493927;28;96550;-63
2022/11/20 00:22:34;;;;;;;33.75;17.00;;;;;;;-6.25;71.45;99869.75;30492718;28;96674;-72
2022/11/20 00:37:34;;;;;;;26.20;13.27;;;;;;;-6.34;70.76;99867.56;30492040;28;96717;-73
2022/11/20 00:52:35;;;;;;;26.00;14.73;;;;;;;-6.46;71.67;99875.00;30490832;28;96659;-73
2022/11/20 01:07:35;;;;;;;23.02;12.88;;;;;;;-6.47;71.90;99878.50;30490165;28;96605;-73
2022/11/20 01:22:36;;;;;;;30.93;16.67;;;;;;;-6.44;71.79;99880.13;30487821;28;96703;-73
2022/11/20 01:37:36;;;;;;;21.93;13.83;;;;;;;-6.67;71.50;99883.75;30488035;28;97001;-72
2022/11/20 01:52:42;;;;;;;29.63;13.90;;;;;;;-6.47;72.17;99873.31;30506178;28;96805;-73
2022/11/20 02:07:43;;;;;;;19.13;11.77;;;;;;;-6.56;72.34;99860.81;30505868;28;96719;-73
2022/11/20 02:22:54;;;;;;;22.67;12.73;;;;;;;-6.61;72.48;99862.75;30503712;28;97035;-72
2022/11/20 02:37:57;;;;;;;21.30;12.07;;;;;;;-6.82;72.88;99861.94;30503000;28;96609;-73
2022/11/20 02:52:58;;;;;;;31.93;12.87;;;;;;;-7.03;73.17;99867.16;30501229;28;96788;-74
2022/11/20 03:07:59;;;;;;;24.03;13.00;;;;;;;-7.07;72.61;99857.00;30500034;28;96626;-73
2022/11/20 03:22:59;;;;;;;23.57;13.10;;;;;;;-7.25;72.96;99853.47;30497915;28;96761;-72
2022/11/20 03:38:00;;;;;;;23.47;12.30;;;;;;;-7.25;73.45;99846.53;30497093;28;97364;-72
2022/11/20 03:53:00;;;;;;;23.87;13.30;;;;;;;-7.35;72.92;99855.63;30496005;28;96701;-73
2022/11/20 04:08:01;;;;;;;30.23;15.67;;;;;;;-7.45;73.34;99865.47;30491854;28;97530;-73
2022/11/20 04:23:01;;;;;;;30.20;15.33;;;;;;;-7.53;73.08;99875.31;30492041;28;96803;-70
2022/11/20 04:38:02;;;;;;;35.27;16.40;;;;;;;-7.59;74.47;99860.06;30492335;28;97207;-71
2022/11/20 04:53:02;;;;;;;29.43;16.93;;;;;;;-7.68;74.50;99853.50;30490568;28;96618;-73
2022/11/20 05:08:03;;;;;;;32.87;17.63;;;;;;;-7.77;74.23;99839.19;30490016;28;96805;-72
2022/11/20 05:23:03;;;;;;;29.43;16.30;;;;;;;-7.82;73.68;99820.44;30501341;28;96737;-69
2022/11/20 05:38:03;;;;;;;30.20;14.67;;;;;;;-7.71;74.29;99827.75;30508072;28;96819;-72
2022/11/20 05:53:04;;;;;;;22.20;14.60;;;;;;;-8.02;75.02;99806.59;30504094;28;96746;-72
2022/11/20 06:08:04;;;;;;;27.37;16.03;;;;;;;-8.11;74.84;99811.28;30503766;28;96724;-72
2022/11/20 06:23:05;;;;;;;32.53;16.47;;;;;;;-8.05;75.14;99795.50;30500467;28;97356;-72
2022/11/20 06:38:05;;;;;;;35.70;15.97;;;;;;;-7.74;75.55;99795.09;30499921;28;96646;-72
2022/11/20 06:53:05;;;;;;;25.23;14.93;;;;;;;-6.86;75.74;99799.09;30498062;28;96611;-69
2022/11/20 07:08:06;;;;;;;40.10;21.88;;;;;;;-5.44;76.35;99807.88;30497683;28;96966;-73
2022/11/20 07:23:06;;;;;;;46.40;23.48;;;;;;;-4.02;75.13;99806.44;30496001;28;97522;-74
2022/11/20 07:38:07;;;;;;;41.63;22.65;;;;;;;-2.93;73.55;99779.19;30494720;28;96978;-65
2022/11/20 07:53:08;;;;;;;49.72;22.92;;;;;;;-1.20;72.73;99773.28;30493897;28;97626;-72
2022/11/20 08:08:08;;;;;;;39.20;22.58;;;;;;;0.79;69.51;99760.72;30492657;28;96495;-63
2022/11/20 08:23:09;;;;;;;34.67;17.58;;;;;;;10.81;61.11;99743.72;30490691;28;96695;-73
2022/11/20 08:38:09;;;;;;;28.42;15.25;;;;;;;16.68;45.67;99735.06;30490770;28;97200;-69
2022/11/20 08:53:10;;;;;;;27.42;16.23;;;;;;;20.54;36.42;99733.22;30495840;28;96591;-74
2022/11/20 09:08:10;;;;;;;26.60;16.92;;;;;;;22.63;26.94;99726.06;30507253;28;98490;-70
2022/11/20 09:23:11;;;;;;;20.90;14.35;;;;;;;22.54;21.49;99722.19;30508442;28;97408;-73
2022/11/20 09:38:11;;;;;;;22.25;14.55;;;;;;;23.52;18.84;99701.75;30505661;28;97012;-71
2022/11/20 09:53:16;;;;;;;18.70;13.73;;;;;;;24.54;18.25;99683.88;30503867;28;97523;-73
2022/11/20 10:08:22;;;;;;;20.60;15.10;;;;;;;22.58;17.72;99678.00;30502538;28;97440;-75
2022/11/20 10:24:00;;;;;;;21.10;15.57;;;;;;;25.11;16.00;99670.91;30502258;28;96787;-74
2022/11/20 10:39:06;;;;;;;19.33;13.97;;;;;;;25.31;14.82;99636.44;30501932;28;97124;-71
2022/11/20 10:54:20;;;;;;;22.20;13.63;;;;;;;26.31;14.57;99636.25;30498690;28;96686;-72
2022/11/20 11:09:32;;;;;;;21.57;13.97;;;;;;;26.90;12.82;99620.59;30498040;28;96791;-72
2022/11/20 11:24:32;;;;;;;17.10;13.00;;;;;;;27.29;13.71;99592.13;30496365;28;97274;-70
2022/11/20 11:39:33;;;;;;;17.63;11.85;;;;;;;28.98;12.21;99578.41;30494462;28;96683;-75
2022/11/20 11:54:45;;;;;;;15.93;12.20;;;;;;;28.87;12.43;99572.38;30493064;28;96699;-73
2022/11/20 12:09:51;;;;;;;16.37;13.27;;;;;;;28.18;12.95;99543.06;30491884;28;96794;-72
2022/11/20 12:25:16;;;;;;;16.53;12.60;;;;;;;29.85;11.81;99539.88;30491368;28;97500;-66
2022/11/20 12:40:30;;;;;;;14.67;11.73;;;;;;;25.90;13.84;99536.44;30489463;28;96688;-70
2022/11/20 12:56:01;;;;;;;20.53;13.27;;;;;;;23.54;15.18;99530.22;30488047;28;96835;-77
2022/11/20 13:11:12;;;;;;;12.93;10.27;;;;;;;23.39;15.19;99515.56;30487734;28;97656;-77
2022/11/20 13:26:22;;;;;;;13.80;9.23;;;;;;;23.24;14.85;99478.34;30488213;28;96720;-76
2022/11/20 13:41:31;;;;;;;14.73;9.90;;;;;;;22.91;15.19;99458.75;30495412;28;96776;-75
2022/11/20 13:57:04;;;;;;;14.30;9.27;;;;;;;20.14;17.64;99452.19;30506223;28;97699;-76
2022/11/20 14:12:16;;;;;;;13.37;9.40;;;;;;;18.10;19.28;99445.56;30502666;28;97027;-74
2022/11/20 14:27:19;;;;;;;13.60;9.13;;;;;;;15.09;22.42;99425.47;30503462;28;97953;-76
2022/11/20 14:42:23;;;;;;;17.03;9.63;;;;;;;10.59;27.04;99430.31;30500454;28;96858;-75
2022/11/20 14:57:24;;;;;;;27.57;11.33;;;;;;;6.02;33.47;99424.25;30498866;28;96767;-66
2022/11/20 15:12:24;;;;;;;17.83;10.15;;;;;;;3.50;37.46;99430.38;30497631;28;96708;-63
2022/11/20 15:27:25;;;;;;;21.45;10.40;;;;;;;1.97;39.87;99425.69;30497033;28;96680;-64
2022/11/20 15:42:25;;;;;;;25.55;12.07;;;;;;;0.77;42.75;99429.59;30494547;28;97420;-67
2022/11/20 15:57:27;;;;;;;48.08;19.52;;;;;;;-0.13;44.83;99428.03;30493889;28;96775;-74
2022/11/20 16:27:45;;;;;;;38.85;18.88;;;;;;;-1.63;49.93;99420.13;30492030;28;97056;-66
2022/11/20 16:42:47;;;;;;;34.72;19.63;;;;;;;-2.00;50.98;99414.94;30491174;28;98455;-74
2022/11/20 16:57:47;;;;;;;40.00;20.58;;;;;;;-2.30;53.05;99418.75;30490424;28;96620;-67
2022/11/20 17:12:48;;;;;;;40.08;20.48;;;;;;;-2.54;54.82;99424.75;30494683;28;96763;-74
2022/11/20 17:27:48;;;;;;;35.65;17.10;;;;;;;-2.66;55.73;99442.03;30509155;28;97301;-65
2022/11/20 17:42:49;;;;;;;28.92;15.80;;;;;;;-2.67;57.47;99444.75;30506160;28;96593;-73
2022/11/20 17:57:52;;;;;;;29.38;13.68;;;;;;;-2.81;58.63;99449.13;30505877;28;96592;-73
2022/11/20 18:12:53;;;;;;;22.85;13.43;;;;;;;-2.99;59.10;99429.50;30501804;28;96940;-68
2022/11/20 18:27:53;;;;;;;32.30;14.10;;;;;;;-3.22;59.42;99429.25;30503366;28;96727;-64
2022/11/20 18:58:12;;;;;;;35.55;17.73;;;;;;;-3.33;61.65;99450.81;30498301;28;96953;-63
2022/11/20 19:13:13;;;;;;;25.13;14.88;;;;;;;-3.40;62.07;99428.69;30486269;28;97955;-69
2022/11/20 19:28:13;;;;;;;29.88;16.10;;;;;;;-3.09;62.69;99430.13;30487041;28;96681;-65
2022/11/20 19:43:14;;;;;;;30.35;14.90;;;;;;;-2.89;63.84;99435.78;30484800;28;97531;-66
2022/11/20 19:58:14;;;;;;;36.42;20.38;;;;;;;-2.78;63.21;99443.69;30484140;28;97070;-64
2022/11/20 20:13:15;;;;;;;36.03;19.67;;;;;;;-2.75;64.43;99473.94;30481214;28;96893;-67
2022/11/20 20:28:15;;;;;;;43.00;21.83;;;;;;;-2.71;64.31;99475.41;30482754;28;97116;-67
2022/11/20 20:43:16;;;;;;;38.00;19.40;;;;;;;-3.30;64.02;99461.00;30479810;28;96747;-64
2022/11/20 20:58:16;;;;;;;41.53;22.00;;;;;;;-3.63;65.17;99448.41;30498336;28;97668;-63
2022/11/20 21:13:17;;;;;;;38.42;19.50;;;;;;;-3.86;66.21;99435.06;30493637;28;97519;-70
2022/11/20 21:28:18;;;;;;;38.25;17.70;;;;;;;-4.03;66.89;99451.75;30503504;28;96738;-67
2022/11/20 21:43:18;;;;;;;39.33;19.52;;;;;;;-4.21;67.49;99451.13;30505922;28;96704;-69
2022/11/20 21:58:19;;;;;;;40.03;21.88;;;;;;;-4.45;67.80;99420.47;30504335;28;96639;-73
2022/11/20 22:28:39;;;;;;;46.00;22.13;;;;;;;-4.68;68.85;99421.88;30504156;28;97012;-69
2022/11/20 22:43:42;;;;;;;54.67;24.63;;;;;;;-4.84;68.67;99421.97;30502701;28;96602;-67
2022/11/20 22:58:45;;;;;;;52.15;25.90;;;;;;;-4.95;69.30;99427.78;30501347;28;96706;-74
2022/11/20 23:13:46;;;;;;;56.97;30.05;;;;;;;-5.13;69.55;99406.31;30498354;28;97043;-66
2022/11/20 23:28:47;;;;;;;81.80;38.83;;;;;;;-5.23;69.85;99376.63;30498471;28;96727;-70
2022/11/20 23:43:47;;;;;;;88.80;39.33;;;;;;;-5.37;70.20;99351.47;30497364;28;97650;-70
2022/11/20 23:58:47;;;;;;;60.63;29.00;;;;;;;-5.25;71.04;99364.66;30495936;28;96670;-65
